Quilpie, Australia
Current Conditions -  °F | °C
As of 4:09 PM on Sunday 26 Oct 2014 (Local Time) from YBCV Reporting Station
Clear Clear  
Wind Chill: 102°   Ceiling: Unl
Heat Index: 102°   Visibility: 6mi
Dew Point: 27°   Wind: 17mph
Humidity: 7%   Direction: 180°S
Pressure: 29.83"   Gusts: 46mph
Location:  26.61°S, 144.27°E
Report Text: YBCV 260609Z AUTO 18015G40KT 9999 // NCD 39/M03 Q1010
Loading
Personal Weather Stations






























Interactive Weather Map
Tropical Storm Tracking
New forecast layout! Learn more

10-Day Weather Forecast

Advertisements
Track Severe Weather on mobile